FLUGWETTER MÜNCHEN AIRPORT

[source: ADDS]
METAR
EDDM 312120Z 24004KT 9999 -RA SCT035 BKN050 BKN070 13/12 Q1013 NOSIG =
TAF
TAF EDDM 311700Z 3118/0124 17005KT 9999 SCT025 BECMG 3118/3120 24005KT PROB30 TEMPO 3118/3121 SHRA SCT020CB TEMPO 3121/0107 24010KT TEMPO 0102/0109 RA BECMG 0109/0111 30010KT TEMPO 0109/0122 4000 SHRA BKN025TCU PROB30 TEMPO 0113/0120 TSRA BKN025CB =
SR / SS: 03:18 / 19:06 UTC (Tag 2016-05-31)

QR-Code dieser Seite

QR-Code dieser Seite